Wetterdaten: Woche 20.02.17 - 26.02.17 (KW8)
Datum Zeit Temp. A. Feuchte A. Luftdruck Regen Wind Richtung Taupunkt Windchill Windben
20.02.2017 00:00 4,4 C 81 % 1024,9 hPa 0,0 l/m 2,6 km/h (1 Bft) O 1,3 C 4,4 C 5,6 km/h (2 Bft)
20.02.2017 01:00 4,3 C 81 % 1024,7 hPa 0,0 l/m 3,5 km/h (1 Bft) O-NO 1,3 C 4,3 C 7,6 km/h (2 Bft)
20.02.2017 02:00 4,3 C 80 % 1024,5 hPa 0,0 l/m 3,4 km/h (1 Bft) O 1,2 C 4,3 C 8,3 km/h (2 Bft)
20.02.2017 03:00 4,2 C 81 % 1024,0 hPa 0,0 l/m 1,7 km/h (1 Bft) O 1,3 C 4,2 C 4,7 km/h (1 Bft)
20.02.2017 04:00 3,8 C 85 % 1023,8 hPa 0,0 l/m 0,1 km/h (0 Bft) O 1,4 C 3,8 C 1,5 km/h (1 Bft)
20.02.2017 05:00 3,3 C 88 % 1023,8 hPa 0,0 l/m 0,8 km/h (0 Bft) O 1,5 C 3,3 C 2,5 km/h (1 Bft)
20.02.2017 06:00 3,6 C 85 % 1023,8 hPa 0,0 l/m 2,3 km/h (1 Bft) O-NO 1,3 C 3,6 C 4,7 km/h (1 Bft)
20.02.2017 07:00 3,7 C 85 % 1023,8 hPa 0,0 l/m 2,8 km/h (1 Bft) O 1,4 C 3,7 C 8,2 km/h (2 Bft)
20.02.2017 08:00 3,5 C 88 % 1023,9 hPa 0,0 l/m 3,3 km/h (1 Bft) NO 1,7 C 3,5 C 7,8 km/h (2 Bft)
20.02.2017 09:00 4,0 C 89 % 1024,2 hPa 0,0 l/m 3,6 km/h (1 Bft) O-NO 2,4 C 4,0 C 10,1 km/h (2 Bft)
20.02.2017 10:00 4,3 C 92 % 1024,3 hPa 0,0 l/m 4,7 km/h (1 Bft) O-NO 3,1 C 4,3 C 13,0 km/h (3 Bft)
20.02.2017 11:00 4,7 C 92 % 1024,2 hPa 0,0 l/m 5,3 km/h (1 Bft) NO 3,5 C 4,5 C 12,5 km/h (2 Bft)
20.02.2017 12:00 4,9 C 91 % 1023,5 hPa 0,0 l/m 5,7 km/h (2 Bft) NO 3,6 C 4,6 C 10,4 km/h (2 Bft)
20.02.2017 13:00 5,6 C 89 % 1022,7 hPa 0,0 l/m 5,0 km/h (1 Bft) O-NO 3,9 C 5,3 C 9,1 km/h (2 Bft)
20.02.2017 14:00 6,3 C 85 % 1022,1 hPa 0,0 l/m 6,4 km/h (2 Bft) O-NO 4,0 C 5,6 C 11,0 km/h (2 Bft)
20.02.2017 15:00 6,4 C 84 % 1021,6 hPa 0,0 l/m 7,0 km/h (2 Bft) O-NO 3,9 C 5,6 C 12,6 km/h (2 Bft)
20.02.2017 16:00 6,0 C 86 % 1021,4 hPa 0,0 l/m 6,0 km/h (2 Bft) NO 3,7 C 5,4 C 11,0 km/h (2 Bft)
20.02.2017 17:00 5,8 C 86 % 1021,2 hPa 0,0 l/m 6,8 km/h (2 Bft) O-NO 3,7 C 5,0 C 12,8 km/h (3 Bft)
20.02.2017 18:00 5,8 C 86 % 1021,1 hPa 0,0 l/m 6,5 km/h (2 Bft) NO 3,6 C 5,1 C 15,3 km/h (3 Bft)
20.02.2017 19:00 5,7 C 87 % 1020,9 hPa 0,0 l/m 6,6 km/h (2 Bft) O-NO 3,7 C 5,1 C 16,1 km/h (3 Bft)
20.02.2017 20:00 5,5 C 90 % 1020,8 hPa 0,0 l/m 6,8 km/h (2 Bft) O-NO 3,9 C 5,1 C 15,7 km/h (3 Bft)
20.02.2017 21:00 5,1 C 95 % 1020,7 hPa 0,3 l/m 6,8 km/h (2 Bft) NO 4,3 C 4,4 C 18,0 km/h (3 Bft)
20.02.2017 22:00 5,2 C 95 % 1020,8 hPa 0,3 l/m 5,3 km/h (1 Bft) O 4,5 C 5,2 C 14,4 km/h (3 Bft)
20.02.2017 23:00 5,3 C 95 % 1020,6 hPa 0,5 l/m 3,9 km/h (1 Bft) O-NO 4,6 C 5,3 C 12,3 km/h (2 Bft)
21.02.2017 00:00 5,3 C 95 % 1020,5 hPa 0,3 l/m 4,9 km/h (1 Bft) O-NO 4,6 C 5,2 C 11,0 km/h (2 Bft)
21.02.2017 01:00 5,5 C 95 % 1020,3 hPa 0,3 l/m 3,9 km/h (1 Bft) O 4,8 C 5,5 C 11,3 km/h (2 Bft)
21.02.2017 02:00 5,7 C 95 % 1019,9 hPa 0,0 l/m 5,2 km/h (1 Bft) O-NO 4,9 C 5,7 C 13,8 km/h (3 Bft)
21.02.2017 03:00 5,9 C 95 % 1019,5 hPa 0,3 l/m 5,7 km/h (2 Bft) O-NO 5,1 C 5,7 C 14,5 km/h (3 Bft)
21.02.2017 04:00 5,8 C 96 % 1018,9 hPa 0,3 l/m 4,4 km/h (1 Bft) NO 5,2 C 5,7 C 11,1 km/h (2 Bft)
21.02.2017 05:00 6,1 C 96 % 1018,5 hPa 0,5 l/m 4,1 km/h (1 Bft) NO 5,6 C 6,1 C 9,7 km/h (2 Bft)
21.02.2017 06:00 6,3 C 96 % 1018,2 hPa 0,5 l/m 5,4 km/h (1 Bft) NO 5,7 C 6,1 C 12,5 km/h (2 Bft)
21.02.2017 07:00 6,4 C 96 % 1018,1 hPa 0,8 l/m 6,4 km/h (2 Bft) O-NO 5,8 C 6,1 C 16,2 km/h (3 Bft)
21.02.2017 08:00 6,7 C 96 % 1018,3 hPa 1,3 l/m 5,9 km/h (2 Bft) O-NO 6,1 C 6,5 C 14,8 km/h (3 Bft)
21.02.2017 09:00 6,8 C 96 % 1018,4 hPa 1,3 l/m 5,8 km/h (2 Bft) O-NO 6,2 C 6,7 C 15,6 km/h (3 Bft)
21.02.2017 10:00 7,1 C 96 % 1018,6 hPa 0,8 l/m 5,0 km/h (1 Bft) O-NO 6,5 C 7,1 C 13,4 km/h (3 Bft)
21.02.2017 11:00 7,6 C 95 % 1018,5 hPa 1,0 l/m 6,0 km/h (2 Bft) O-NO 6,9 C 7,3 C 13,8 km/h (3 Bft)
21.02.2017 12:00 7,8 C 96 % 1018,8 hPa 1,8 l/m 5,4 km/h (1 Bft) O-NO 7,2 C 7,6 C 12,5 km/h (2 Bft)
21.02.2017 13:00 7,9 C 96 % 1018,6 hPa 2,0 l/m 5,5 km/h (2 Bft) O-NO 7,3 C 7,8 C 14,2 km/h (3 Bft)
21.02.2017 14:00 7,9 C 96 % 1018,3 hPa 1,8 l/m 4,4 km/h (1 Bft) O-NO 7,3 C 7,9 C 11,3 km/h (2 Bft)
21.02.2017 15:00 8,0 C 96 % 1018,3 hPa 3,3 l/m 3,8 km/h (1 Bft) O-NO 7,4 C 8,0 C 9,5 km/h (2 Bft)
21.02.2017 16:00 8,1 C 96 % 1018,3 hPa 2,3 l/m 3,5 km/h (1 Bft) O-NO 7,5 C 8,1 C 9,5 km/h (2 Bft)
21.02.2017 17:00 8,0 C 97 % 1018,5 hPa 2,0 l/m 3,1 km/h (1 Bft) O-NO 7,5 C 8,0 C 7,3 km/h (2 Bft)
21.02.2017 18:00 8,0 C 97 % 1018,7 hPa 1,0 l/m 3,0 km/h (1 Bft) O-NO 7,5 C 8,0 C 7,2 km/h (2 Bft)
21.02.2017 19:00 7,9 C 96 % 1018,7 hPa 2,3 l/m 3,6 km/h (1 Bft) O-NO 7,4 C 7,9 C 9,7 km/h (2 Bft)
21.02.2017 20:00 7,9 C 96 % 1018,6 hPa 2,0 l/m 4,7 km/h (1 Bft) O 7,3 C 7,9 C 12,0 km/h (2 Bft)
21.02.2017 21:00 7,8 C 96 % 1018,7 hPa 0,8 l/m 4,7 km/h (1 Bft) NO 7,2 C 7,8 C 11,8 km/h (2 Bft)
21.02.2017 22:00 7,8 C 96 % 1018,4 hPa 0,0 l/m 5,1 km/h (1 Bft) O-NO 7,2 C 7,6 C 12,2 km/h (2 Bft)
21.02.2017 23:00 7,8 C 96 % 1018,3 hPa 1,0 l/m 3,4 km/h (1 Bft) O-NO 7,2 C 7,8 C 9,0 km/h (2 Bft)
22.02.2017 00:00 7,7 C 96 % 1018,2 hPa 0,5 l/m 3,4 km/h (1 Bft) O 7,1 C 7,7 C 6,9 km/h (2 Bft)
22.02.2017 01:00 7,8 C 96 % 1017,5 hPa 0,3 l/m 2,4 km/h (1 Bft) NO 7,2 C 7,8 C 6,7 km/h (2 Bft)
22.02.2017 02:00 7,8 C 95 % 1017,1 hPa 0,0 l/m 4,2 km/h (1 Bft) NO 7,1 C 7,8 C 11,1 km/h (2 Bft)
22.02.2017 03:00 7,7 C 95 % 1016,3 hPa 0,3 l/m 5,0 km/h (1 Bft) O-NO 6,9 C 7,6 C 13,0 km/h (3 Bft)
22.02.2017 04:00 7,6 C 94 % 1015,7 hPa 0,0 l/m 7,0 km/h (2 Bft) NO 6,8 C 6,9 C 18,0 km/h (3 Bft)
22.02.2017 05:00 7,3 C 94 % 1015,5 hPa 0,3 l/m 8,2 km/h (2 Bft) O-NO 6,4 C 5,9 C 19,3 km/h (3 Bft)
22.02.2017 06:00 7,2 C 94 % 1015,0 hPa 0,0 l/m 7,2 km/h (2 Bft) O-NO 6,2 C 6,2 C 13,0 km/h (3 Bft)
22.02.2017 07:00 7,1 C 91 % 1015,0 hPa 0,0 l/m 7,9 km/h (2 Bft) O-NO 5,7 C 5,6 C 14,8 km/h (3 Bft)
22.02.2017 08:00 6,9 C 90 % 1015,4 hPa 0,0 l/m 10,5 km/h (2 Bft) O-NO 5,4 C 4,0 C 19,0 km/h (3 Bft)
22.02.2017 09:00 6,9 C 89 % 1015,3 hPa 0,3 l/m 11,0 km/h (2 Bft) O-NO 5,2 C 3,7 C 19,8 km/h (3 Bft)
22.02.2017 10:00 7,0 C 87 % 1015,7 hPa 0,0 l/m 9,3 km/h (2 Bft) O-NO 4,9 C 4,7 C 17,4 km/h (3 Bft)
22.02.2017 11:00 7,0 C 87 % 1015,7 hPa 0,0 l/m 7,2 km/h (2 Bft) O-NO 4,9 C 6,0 C 14,1 km/h (3 Bft)
22.02.2017 12:00 7,2 C 86 % 1015,6 hPa 0,0 l/m 7,5 km/h (2 Bft) O-NO 5,0 C 6,2 C 15,7 km/h (3 Bft)
22.02.2017 13:00 7,1 C 86 % 1015,2 hPa 0,0 l/m 8,8 km/h (2 Bft) O-NO 4,9 C 5,2 C 22,0 km/h (4 Bft)
22.02.2017 14:00 6,9 C 85 % 1014,7 hPa 0,0 l/m 10,9 km/h (2 Bft) O-NO 4,5 C 3,6 C 24,1 km/h (4 Bft)
22.02.2017 15:00 6,8 C 85 % 1014,2 hPa 0,0 l/m 10,7 km/h (2 Bft) O-NO 4,5 C 3,7 C 23,7 km/h (4 Bft)
22.02.2017 16:00 6,7 C 86 % 1014,4 hPa 0,0 l/m 10,7 km/h (2 Bft) O-NO 4,5 C 3,5 C 23,9 km/h (4 Bft)
22.02.2017 17:00 6,5 C 86 % 1014,1 hPa 0,0 l/m 11,4 km/h (2 Bft) O-NO 4,3 C 2,8 C 23,2 km/h (4 Bft)
22.02.2017 18:00 6,5 C 86 % 1014,0 hPa 0,0 l/m 9,9 km/h (2 Bft) O-NO 4,4 C 3,8 C 20,4 km/h (4 Bft)
22.02.2017 19:00 6,4 C 87 % 1014,1 hPa 0,0 l/m 8,9 km/h (2 Bft) NO 4,4 C 4,4 C 19,6 km/h (3 Bft)
22.02.2017 20:00 6,4 C 86 % 1014,2 hPa 0,0 l/m 9,3 km/h (2 Bft) O 4,2 C 4,1 C 21,7 km/h (4 Bft)
22.02.2017 21:00 6,3 C 85 % 1013,9 hPa 0,0 l/m 7,8 km/h (2 Bft) O-NO 4,0 C 4,8 C 18,2 km/h (3 Bft)
22.02.2017 22:00 6,3 C 85 % 1014,0 hPa 0,0 l/m 7,1 km/h (2 Bft) O 3,9 C 5,6 C 17,4 km/h (3 Bft)
22.02.2017 23:00 6,2 C 85 % 1013,7 hPa 0,0 l/m 6,1 km/h (2 Bft) O-NO 3,8 C 5,8 C 16,6 km/h (3 Bft)
23.02.2017 00:00 6,2 C 85 % 1013,6 hPa 0,0 l/m 7,5 km/h (2 Bft) O-NO 3,9 C 5,1 C 15,6 km/h (3 Bft)
23.02.2017 01:00 6,2 C 86 % 1013,4 hPa 0,0 l/m 7,0 km/h (2 Bft) O-NO 4,0 C 5,6 C 16,2 km/h (3 Bft)
23.02.2017 02:00 6,1 C 87 % 1012,9 hPa 0,0 l/m 5,6 km/h (2 Bft) NO 4,1 C 5,9 C 14,0 km/h (3 Bft)
23.02.2017 03:00 6,1 C 87 % 1012,3 hPa 0,0 l/m 6,5 km/h (2 Bft) O 4,1 C 5,8 C 15,7 km/h (3 Bft)
23.02.2017 04:00 6,0 C 87 % 1011,4 hPa 0,0 l/m 7,7 km/h (2 Bft) O-NO 3,9 C 4,8 C 18,0 km/h (3 Bft)
23.02.2017 05:00 5,7 C 88 % 1011,0 hPa 0,0 l/m 6,1 km/h (2 Bft) O-NO 3,8 C 5,3 C 14,1 km/h (3 Bft)
23.02.2017 06:00 5,6 C 89 % 1010,6 hPa 0,0 l/m 4,5 km/h (1 Bft) O-NO 3,8 C 5,6 C 10,6 km/h (2 Bft)
23.02.2017 07:00 5,5 C 88 % 1009,8 hPa 0,0 l/m 3,3 km/h (1 Bft) O-NO 3,7 C 5,5 C 8,8 km/h (2 Bft)
23.02.2017 08:00 7,0 C 80 % 1008,9 hPa 0,0 l/m 4,1 km/h (1 Bft) O-NO 3,7 C 7,0 C 11,4 km/h (2 Bft)
23.02.2017 09:00 9,2 C 65 % 1007,8 hPa 0,0 l/m 6,0 km/h (2 Bft) O 2,8 C 8,7 C 14,9 km/h (3 Bft)
23.02.2017 10:00 12,4 C 49 % 1007,0 hPa 0,0 l/m 12,5 km/h (2 Bft) O 1,9 C 9,2 C 28,2 km/h (5 Bft)
23.02.2017 11:00 13,9 C 43 % 1006,1 hPa 0,0 l/m 11,3 km/h (2 Bft) NO 1,6 C 11,4 C 24,7 km/h (4 Bft)
23.02.2017 12:00 15,0 C 40 % 1005,3 hPa 0,0 l/m 10,5 km/h (2 Bft) NO 1,4 C 13,0 C 21,9 km/h (4 Bft)
23.02.2017 13:00 15,3 C 37 % 1003,5 hPa 0,0 l/m 12,3 km/h (2 Bft) NO 0,7 C 12,6 C 28,8 km/h (5 Bft)
23.02.2017 14:00 15,3 C 35 % 1001,9 hPa 0,0 l/m 13,8 km/h (3 Bft) NO -0,1 C 12,0 C 32,4 km/h (5 Bft)
23.02.2017 15:00 15,2 C 33 % 1000,6 hPa 0,0 l/m 17,7 km/h (3 Bft) NO -1,1 C 10,7 C 40,8 km/h (6 Bft)
23.02.2017 16:00 14,1 C 33 % 999,8 hPa 0,0 l/m 16,9 km/h (3 Bft) O-NO -2,1 C 9,5 C 39,8 km/h (6 Bft)
23.02.2017 17:00 13,0 C 36 % 1000,0 hPa 0,0 l/m 15,9 km/h (3 Bft) O -1,6 C 8,5 C 32,5 km/h (5 Bft)
23.02.2017 18:00 12,3 C 41 % 1000,2 hPa 0,0 l/m 14,5 km/h (3 Bft) NO -0,8 C 8,2 C 30,6 km/h (5 Bft)
23.02.2017 19:00 11,3 C 48 % 1000,2 hPa 0,0 l/m 15,0 km/h (3 Bft) O 0,5 C 6,8 C 34,3 km/h (5 Bft)
23.02.2017 20:00 7,6 C 84 % 1001,1 hPa 1,8 l/m 13,8 km/h (3 Bft) O-NO 5,0 C 2,9 C 31,2 km/h (5 Bft)
23.02.2017 21:00 7,8 C 81 % 1000,7 hPa 0,0 l/m 13,3 km/h (3 Bft) O-SO 4,6 C 3,3 C 31,5 km/h (5 Bft)
23.02.2017 22:00 7,3 C 85 % 1001,6 hPa 2,5 l/m 11,8 km/h (2 Bft) O-NO 5,0 C 3,7 C 31,6 km/h (5 Bft)
23.02.2017 23:00 4,9 C 88 % 1002,8 hPa 1,5 l/m 10,4 km/h (2 Bft) O-SO 3,1 C 1,7 C 26,7 km/h (4 Bft)
24.02.2017 00:00 4,5 C 87 % 1003,5 hPa 0,0 l/m 9,4 km/h (2 Bft) O-NO 2,5 C 2,0 C 20,8 km/h (4 Bft)
24.02.2017 01:00 4,6 C 84 % 1004,1 hPa 0,0 l/m 11,1 km/h (2 Bft) O-NO 2,1 C 0,9 C 26,7 km/h (4 Bft)
24.02.2017 02:00 4,5 C 80 % 1004,7 hPa 0,0 l/m 11,7 km/h (2 Bft) O-NO 1,3 C 0,5 C 28,7 km/h (5 Bft)
24.02.2017 03:00 4,1 C 75 % 1005,7 hPa 0,0 l/m 10,5 km/h (2 Bft) O 0,1 C 0,8 C 26,3 km/h (4 Bft)
24.02.2017 04:00 3,5 C 77 % 1006,6 hPa 0,0 l/m 6,5 km/h (2 Bft) NO -0,1 C 3,0 C 18,0 km/h (3 Bft)
24.02.2017 05:00 3,4 C 76 % 1008,1 hPa 0,0 l/m 5,0 km/h (1 Bft) O -0,4 C 3,1 C 12,7 km/h (3 Bft)
24.02.2017 06:00 3,3 C 77 % 1008,7 hPa 0,0 l/m 3,8 km/h (1 Bft) O-NO -0,2 C 3,3 C 9,6 km/h (2 Bft)
24.02.2017 07:00 3,2 C 78 % 1009,4 hPa 0,0 l/m 4,5 km/h (1 Bft) O-NO -0,3 C 3,1 C 12,9 km/h (3 Bft)
24.02.2017 08:00 1,9 C 86 % 1010,9 hPa 0,0 l/m 3,0 km/h (1 Bft) O -0,1 C 1,9 C 9,3 km/h (2 Bft)
24.02.2017 09:00 1,4 C 91 % 1011,5 hPa 0,0 l/m 1,7 km/h (1 Bft) O 0,1 C 1,4 C 4,3 km/h (1 Bft)
24.02.2017 10:00 0,9 C 93 % 1012,4 hPa 0,0 l/m 1,1 km/h (1 Bft) O-NO -0,1 C 0,9 C 4,1 km/h (1 Bft)
24.02.2017 11:00 1,7 C 93 % 1013,0 hPa 1,5 l/m 2,8 km/h (1 Bft) N-NO 0,7 C 1,7 C 6,7 km/h (2 Bft)
24.02.2017 12:00 2,8 C 90 % 1013,1 hPa 2,8 l/m 2,1 km/h (1 Bft) O 1,2 C 2,8 C 5,0 km/h (1 Bft)
24.02.2017 13:00 3,9 C 86 % 1013,1 hPa 3,3 l/m 4,1 km/h (1 Bft) O 1,8 C 3,9 C 9,9 km/h (2 Bft)
24.02.2017 14:00 4,3 C 83 % 1013,2 hPa 0,3 l/m 3,6 km/h (1 Bft) O 1,6 C 4,3 C 8,6 km/h (2 Bft)
24.02.2017 15:00 3,8 C 83 % 1013,8 hPa 0,0 l/m 2,8 km/h (1 Bft) N-NO 1,2 C 3,8 C 7,8 km/h (2 Bft)
24.02.2017 16:00 1,6 C 90 % 1014,8 hPa 0,3 l/m 2,0 km/h (1 Bft) NO 0,1 C 1,6 C 5,3 km/h (1 Bft)
24.02.2017 17:00 0,8 C 93 % 1016,0 hPa 0,0 l/m 3,5 km/h (1 Bft) NO -0,2 C 0,8 C 7,7 km/h (2 Bft)
24.02.2017 18:00 0,6 C 94 % 1016,9 hPa 0,0 l/m 2,5 km/h (1 Bft) O-NO -0,3 C 0,6 C 5,7 km/h (2 Bft)
24.02.2017 19:00 0,2 C 95 % 1018,5 hPa 0,0 l/m 0,4 km/h (0 Bft) O-NO -0,5 C 0,2 C 1,7 km/h (1 Bft)
24.02.2017 20:00 -0,4 C 95 % 1019,3 hPa 0,0 l/m 0,5 km/h (0 Bft) O-NO -1,0 C -0,4 C 2,5 km/h (1 Bft)
24.02.2017 21:00 -0,7 C 96 % 1020,0 hPa 0,0 l/m 1,6 km/h (1 Bft) O-NO -1,3 C -0,7 C 4,5 km/h (1 Bft)
24.02.2017 22:00 -0,9 C 96 % 1020,7 hPa 0,0 l/m 0,7 km/h (0 Bft) O-NO -1,4 C -0,9 C 2,7 km/h (1 Bft)
24.02.2017 23:00 -1,1 C 97 % 1021,1 hPa 0,0 l/m 1,5 km/h (1 Bft) O -1,5 C -1,1 C 4,3 km/h (1 Bft)
25.02.2017 00:00 -1,4 C 97 % 1021,6 hPa 0,0 l/m 0,9 km/h (0 Bft) O -1,8 C -1,4 C 2,5 km/h (1 Bft)
25.02.2017 01:00 -1,8 C 97 % 1022,2 hPa 0,0 l/m 0,3 km/h (0 Bft) O -2,2 C -1,8 C 2,0 km/h (1 Bft)
25.02.2017 02:00 -1,9 C 97 % 1022,5 hPa 0,0 l/m 0,7 km/h (0 Bft) O-NO -2,4 C -1,9 C 2,7 km/h (1 Bft)
25.02.2017 03:00 -1,8 C 97 % 1022,4 hPa 0,0 l/m 1,7 km/h (1 Bft) NO -2,3 C -1,8 C 4,3 km/h (1 Bft)
25.02.2017 04:00 -2,2 C 97 % 1022,5 hPa 0,0 l/m 0,5 km/h (0 Bft) N-NW -2,6 C -2,2 C 1,9 km/h (1 Bft)
25.02.2017 05:00 -2,2 C 97 % 1022,9 hPa 0,0 l/m 0,2 km/h (0 Bft) NO -2,6 C -2,2 C 1,4 km/h (1 Bft)
25.02.2017 06:00 -2,3 C 97 % 1023,0 hPa 0,0 l/m 0,4 km/h (0 Bft) NO -2,7 C -2,3 C 1,7 km/h (1 Bft)
25.02.2017 07:00 -2,7 C 97 % 1023,3 hPa 0,0 l/m 0,2 km/h (0 Bft) NO -3,2 C -2,7 C 1,6 km/h (1 Bft)
25.02.2017 08:00 -2,7 C 97 % 1023,9 hPa 0,0 l/m 0,4 km/h (0 Bft) NO -3,1 C -2,7 C 1,9 km/h (1 Bft)
25.02.2017 09:00 -1,1 C 97 % 1024,4 hPa 0,3 l/m 1,2 km/h (1 Bft) NO -1,5 C -1,1 C 3,2 km/h (1 Bft)
25.02.2017 10:00 1,8 C 94 % 1024,7 hPa 0,0 l/m 1,9 km/h (1 Bft) NO 1,0 C 1,8 C 4,4 km/h (1 Bft)
25.02.2017 11:00 4,4 C 82 % 1024,4 hPa 0,0 l/m 2,4 km/h (1 Bft) N-NO 1,6 C 4,4 C 5,9 km/h (2 Bft)
25.02.2017 12:00 5,5 C 72 % 1023,8 hPa 0,0 l/m 3,2 km/h (1 Bft) W-NW 0,9 C 5,5 C 6,1 km/h (2 Bft)
25.02.2017 13:00 7,2 C 59 % 1022,9 hPa 0,0 l/m 3,0 km/h (1 Bft) NO -0,3 C 7,2 C 7,1 km/h (2 Bft)
25.02.2017 14:00 8,2 C 58 % 1022,1 hPa 0,3 l/m 3,3 km/h (1 Bft) N-NO 0,4 C 8,2 C 8,0 km/h (2 Bft)
25.02.2017 15:00 8,8 C 57 % 1021,6 hPa 0,0 l/m 2,3 km/h (1 Bft) O-NO 0,9 C 8,8 C 6,1 km/h (2 Bft)
25.02.2017 16:00 8,3 C 61 % 1021,1 hPa 0,0 l/m 3,0 km/h (1 Bft) NO 1,3 C 8,3 C 5,7 km/h (2 Bft)
25.02.2017 17:00 5,5 C 77 % 1021,0 hPa 0,0 l/m 0,6 km/h (0 Bft) O-NO 1,8 C 5,5 C 1,8 km/h (1 Bft)
25.02.2017 18:00 3,3 C 84 % 1021,1 hPa 0,0 l/m 0,1 km/h (0 Bft) O-NO 0,9 C 3,3 C 1,0 km/h (0 Bft)
25.02.2017 19:00 0,8 C 90 % 1020,9 hPa 0,0 l/m 0,1 km/h (0 Bft) O-NO -0,6 C 0,8 C 0,9 km/h (0 Bft)
25.02.2017 20:00 -0,4 C 92 % 1020,8 hPa 0,0 l/m 0,0 km/h (0 Bft) O-NO -1,5 C -0,4 C 0,3 km/h (0 Bft)
25.02.2017 21:00 -1,1 C 94 % 1020,6 hPa 0,0 l/m 0,0 km/h (0 Bft) O-NO -2,0 C -1,1 C 0,4 km/h (0 Bft)
25.02.2017 22:00 -1,7 C 94 % 1020,5 hPa 0,0 l/m 0,0 km/h (0 Bft) O-NO -2,5 C -1,7 C 0,3 km/h (0 Bft)
25.02.2017 23:00 -1,6 C 96 % 1020,4 hPa 0,0 l/m 0,3 km/h (0 Bft) O-NO -2,2 C -1,6 C 1,7 km/h (1 Bft)
26.02.2017 00:00 -1,5 C 95 % 1020,1 hPa 0,0 l/m 0,1 km/h (0 Bft) O-NO -2,2 C -1,5 C 0,9 km/h (0 Bft)
26.02.2017 01:00 -1,2 C 96 % 1019,4 hPa 0,0 l/m 0,2 km/h (0 Bft) O-NO -1,8 C -1,2 C 1,1 km/h (0 Bft)
26.02.2017 02:00 -1,3 C 96 % 1019,0 hPa 0,0 l/m 0,2 km/h (0 Bft) O-NO -2,0 C -1,3 C 1,5 km/h (1 Bft)
26.02.2017 03:00 -1,0 C 96 % 1018,7 hPa 0,0 l/m 0,2 km/h (0 Bft) O-NO -1,6 C -1,0 C 1,6 km/h (1 Bft)
26.02.2017 04:00 -0,9 C 95 % 1018,7 hPa 0,0 l/m 0,0 km/h (0 Bft) O-NO -1,6 C -0,9 C 0,9 km/h (0 Bft)
26.02.2017 05:00 -0,9 C 95 % 1018,5 hPa 0,0 l/m 0,1 km/h (0 Bft) O-NO -1,6 C -0,9 C 0,8 km/h (0 Bft)
26.02.2017 06:00 -0,8 C 94 % 1018,4 hPa 0,0 l/m 0,2 km/h (0 Bft) O-NO -1,7 C -0,8 C 1,4 km/h (1 Bft)
26.02.2017 07:00 -0,7 C 93 % 1018,4 hPa 0,0 l/m 0,2 km/h (0 Bft) O-NO -1,7 C -0,7 C 0,9 km/h (0 Bft)
26.02.2017 08:00 0,0 C 92 % 1018,8 hPa 0,0 l/m 0,3 km/h (0 Bft) O-NO -1,1 C 0,0 C 2,0 km/h (1 Bft)
26.02.2017 09:00 1,9 C 89 % 1018,8 hPa 0,0 l/m 1,4 km/h (1 Bft) NO 0,2 C 1,9 C 4,3 km/h (1 Bft)
26.02.2017 10:00 3,9 C 82 % 1018,6 hPa 0,0 l/m 1,7 km/h (1 Bft) N-NO 1,2 C 3,9 C 4,4 km/h (1 Bft)
26.02.2017 11:00 6,6 C 66 % 1018,3 hPa 0,0 l/m 5,9 km/h (2 Bft) O-NO 0,7 C 6,3 C 12,6 km/h (2 Bft)
26.02.2017 12:00 7,8 C 59 % 1018,0 hPa 0,0 l/m 5,9 km/h (2 Bft) O-NO 0,2 C 7,4 C 12,6 km/h (3 Bft)
26.02.2017 13:00 8,7 C 52 % 1017,5 hPa 0,0 l/m 8,3 km/h (2 Bft) O-NO -0,7 C 7,3 C 18,8 km/h (3 Bft)
26.02.2017 14:00 9,9 C 47 % 1016,9 hPa 0,0 l/m 8,8 km/h (2 Bft) O-NO -0,8 C 8,1 C 19,8 km/h (4 Bft)
26.02.2017 15:00 10,6 C 44 % 1016,3 hPa 0,0 l/m 6,2 km/h (2 Bft) O-NO -1,2 C 10,2 C 15,0 km/h (3 Bft)
26.02.2017 16:00 11,5 C 40 % 1016,0 hPa 0,0 l/m 4,6 km/h (1 Bft) O-NO -1,5 C 11,4 C 11,0 km/h (2 Bft)
26.02.2017 17:00 9,0 C 45 % 1016,0 hPa 0,0 l/m 2,3 km/h (1 Bft) O-NO -2,3 C 9,0 C 5,6 km/h (2 Bft)
26.02.2017 18:00 6,6 C 54 % 1016,3 hPa 0,0 l/m 1,6 km/h (1 Bft) O -2,0 C 6,6 C 3,6 km/h (1 Bft)
26.02.2017 19:00 3,7 C 69 % 1016,8 hPa 0,0 l/m 0,5 km/h (0 Bft) O-NO -1,5 C 3,7 C 2,1 km/h (1 Bft)
26.02.2017 20:00 2,2 C 74 % 1016,7 hPa 0,0 l/m 0,5 km/h (0 Bft) SO -1,9 C 2,2 C 1,9 km/h (1 Bft)
26.02.2017 21:00 0,9 C 80 % 1016,4 hPa 0,0 l/m 0,7 km/h (0 Bft) S -2,2 C 0,9 C 2,5 km/h (1 Bft)
26.02.2017 22:00 0,2 C 82 % 1015,9 hPa 0,0 l/m 0,6 km/h (0 Bft) S -2,5 C 0,2 C 1,9 km/h (1 Bft)
26.02.2017 23:00 -0,2 C 81 % 1015,7 hPa 0,0 l/m 0,6 km/h (0 Bft) S-SW -3,0 C -0,2 C 2,4 km/h (1 Bft)
Min-Datum _ 25.02.17 23.02.17 23.02.17 - 26.02.17 - 25.02.17 25.02.17 26.02.17
_ Min-Zeit 07:51 16:10 17:20 - 23:50 - 07:51 07:51 23:50
Minimum _ -2,9 C 31 % 999,4 hPa - 0,0 km/h (0 Bft) - -3,3 C -2,9 C 0,0 km/h (0 Bft)
Max-Datum _ 23.02.17 25.02.17 20.02.17 24.02.17 23.02.17 - 21.02.17 23.02.17 23.02.17
_ Max-Zeit 14:50 10:00 01:00 13:20 18:01 - 17:25 12:07 16:55
Maximum _ 15,7 C 98 % 1025,1 hPa 3,3 l/m 22,5 km/h
NO (4 Bft)
- 7,7 C 14,8 C 54,7 km/h
NO (7 Bft)
Durchschnitt _ 5,0 C 84 % 1016,4 hPa #44,4 l/m 5,0 km/h (1 Bft) O-NO 2,1 C 4,3 C 11,7 km/h (2 Bft)